sensor_id;sensor_type;location;lat;lon;timestamp;temperature;humidity
62916;DHT22;49010;51.230;-2.306;2022-11-15T00:03:21;11.70;96.50
62916;DHT22;49010;51.230;-2.306;2022-11-15T00:07:03;11.80;96.50
62916;DHT22;49010;51.230;-2.306;2022-11-15T00:10:59;11.80;96.70
62916;DHT22;49010;51.230;-2.306;2022-11-15T00:14:42;11.90;96.60
62916;DHT22;49010;51.230;-2.306;2022-11-15T00:18:24;11.90;96.60
62916;DHT22;49010;51.230;-2.306;2022-11-15T00:22:06;11.90;96.60
62916;DHT22;49010;51.230;-2.306;2022-11-15T00:25:55;11.90;96.70
62916;DHT22;49010;51.230;-2.306;2022-11-15T00:29:37;11.90;96.70
62916;DHT22;49010;51.230;-2.306;2022-11-15T00:33:20;12.00;96.70
62916;DHT22;49010;51.230;-2.306;2022-11-15T00:37:02;12.00;96.80
62916;DHT22;49010;51.230;-2.306;2022-11-15T00:40:43;12.00;96.90
62916;DHT22;49010;51.230;-2.306;2022-11-15T00:44:25;12.10;96.90
62916;DHT22;49010;51.230;-2.306;2022-11-15T00:48:08;12.10;97.00
62916;DHT22;49010;51.230;-2.306;2022-11-15T00:51:50;12.20;96.90
62916;DHT22;49010;51.230;-2.306;2022-11-15T00:55:31;12.20;96.90
62916;DHT22;49010;51.230;-2.306;2022-11-15T00:59:13;12.20;97.00
62916;DHT22;49010;51.230;-2.306;2022-11-15T01:02:55;12.30;96.90
62916;DHT22;49010;51.230;-2.306;2022-11-15T01:06:37;12.30;96.80
62916;DHT22;49010;51.230;-2.306;2022-11-15T01:10:19;12.40;96.70
62916;DHT22;49010;51.230;-2.306;2022-11-15T01:14:02;12.40;96.70
62916;DHT22;49010;51.230;-2.306;2022-11-15T01:17:44;12.40;96.70
62916;DHT22;49010;51.230;-2.306;2022-11-15T01:21:26;12.50;96.80
62916;DHT22;49010;51.230;-2.306;2022-11-15T01:25:08;12.60;96.90
62916;DHT22;49010;51.230;-2.306;2022-11-15T01:28:50;12.60;97.10
62916;DHT22;49010;51.230;-2.306;2022-11-15T01:32:32;12.60;97.40
62916;DHT22;49010;51.230;-2.306;2022-11-15T01:36:19;12.60;97.60
62916;DHT22;49010;51.230;-2.306;2022-11-15T01:40:03;12.60;97.80
62916;DHT22;49010;51.230;-2.306;2022-11-15T01:43:48;12.50;98.00
62916;DHT22;49010;51.230;-2.306;2022-11-15T01:47:37;12.60;98.10
62916;DHT22;49010;51.230;-2.306;2022-11-15T01:51:25;12.60;98.10
62916;DHT22;49010;51.230;-2.306;2022-11-15T01:55:22;12.60;98.30
62916;DHT22;49010;51.230;-2.306;2022-11-15T01:59:07;12.50;98.20
62916;DHT22;49010;51.230;-2.306;2022-11-15T02:02:50;12.60;98.20
62916;DHT22;49010;51.230;-2.306;2022-11-15T02:06:32;12.50;98.20
62916;DHT22;49010;51.230;-2.306;2022-11-15T02:10:21;12.60;98.10
62916;DHT22;49010;51.230;-2.306;2022-11-15T02:14:03;12.60;98.10
62916;DHT22;49010;51.230;-2.306;2022-11-15T02:33:44;12.70;99.10
62916;DHT22;49010;51.230;-2.306;2022-11-15T02:41:42;12.60;99.20
62916;DHT22;49010;51.230;-2.306;2022-11-15T02:45:35;12.60;99.50
62916;DHT22;49010;51.230;-2.306;2022-11-15T02:49:19;12.60;99.70
62916;DHT22;49010;51.230;-2.306;2022-11-15T02:53:01;12.60;99.90
62916;DHT22;49010;51.230;-2.306;2022-11-15T02:56:44;12.60;99.90
62916;DHT22;49010;51.230;-2.306;2022-11-15T03:00:31;12.60;99.90
62916;DHT22;49010;51.230;-2.306;2022-11-15T03:12:33;12.50;99.90
62916;DHT22;49010;51.230;-2.306;2022-11-15T03:20:05;12.40;99.90
62916;DHT22;49010;51.230;-2.306;2022-11-15T03:23:48;12.30;99.90
62916;DHT22;49010;51.230;-2.306;2022-11-15T03:27:40;12.30;99.90
62916;DHT22;49010;51.230;-2.306;2022-11-15T03:31:27;12.40;99.90
62916;DHT22;49010;51.230;-2.306;2022-11-15T03:35:36;12.20;99.90
62916;DHT22;49010;51.230;-2.306;2022-11-15T03:39:20;12.50;99.90
62916;DHT22;49010;51.230;-2.306;2022-11-15T03:43:16;12.20;99.90
62916;DHT22;49010;51.230;-2.306;2022-11-15T03:47:30;12.50;99.90
62916;DHT22;49010;51.230;-2.306;2022-11-15T03:51:14;12.40;99.90
62916;DHT22;49010;51.230;-2.306;2022-11-15T03:54:57;12.20;99.90
62916;DHT22;49010;51.230;-2.306;2022-11-15T03:58:40;12.20;99.90
62916;DHT22;49010;51.230;-2.306;2022-11-15T04:02:22;12.20;99.90
62916;DHT22;49010;51.230;-2.306;2022-11-15T04:06:05;12.30;99.90
62916;DHT22;49010;51.230;-2.306;2022-11-15T04:09:47;12.30;99.90
62916;DHT22;49010;51.230;-2.306;2022-11-15T04:13:44;12.40;99.90
62916;DHT22;49010;51.230;-2.306;2022-11-15T04:17:26;12.30;99.90
62916;DHT22;49010;51.230;-2.306;2022-11-15T04:21:08;12.40;99.90
62916;DHT22;49010;51.230;-2.306;2022-11-15T04:25:09;12.30;99.90
62916;DHT22;49010;51.230;-2.306;2022-11-15T04:28:51;12.30;99.90
62916;DHT22;49010;51.230;-2.306;2022-11-15T04:32:51;12.30;99.90
62916;DHT22;49010;51.230;-2.306;2022-11-15T04:36:33;12.60;99.90
62916;DHT22;49010;51.230;-2.306;2022-11-15T04:40:34;12.30;99.90
62916;DHT22;49010;51.230;-2.306;2022-11-15T04:44:16;12.50;99.90
62916;DHT22;49010;51.230;-2.306;2022-11-15T04:47:58;12.60;99.90
62916;DHT22;49010;51.230;-2.306;2022-11-15T04:51:40;12.30;99.90
62916;DHT22;49010;51.230;-2.306;2022-11-15T04:55:22;12.50;99.90
62916;DHT22;49010;51.230;-2.306;2022-11-15T04:59:04;12.60;99.90
62916;DHT22;49010;51.230;-2.306;2022-11-15T05:02:46;12.30;99.90
62916;DHT22;49010;51.230;-2.306;2022-11-15T05:06:50;12.70;99.90
62916;DHT22;49010;51.230;-2.306;2022-11-15T05:10:32;12.60;99.90
62916;DHT22;49010;51.230;-2.306;2022-11-15T05:14:14;12.30;99.90
62916;DHT22;49010;51.230;-2.306;2022-11-15T05:17:58;12.70;99.90
62916;DHT22;49010;51.230;-2.306;2022-11-15T05:21:41;12.40;99.90
62916;DHT22;49010;51.230;-2.306;2022-11-15T05:25:23;12.60;99.90
62916;DHT22;49010;51.230;-2.306;2022-11-15T05:29:05;12.60;99.90
62916;DHT22;49010;51.230;-2.306;2022-11-15T05:32:47;12.40;99.90
62916;DHT22;49010;51.230;-2.306;2022-11-15T05:36:41;12.70;99.90
62916;DHT22;49010;51.230;-2.306;2022-11-15T05:40:24;12.30;99.90
62916;DHT22;49010;51.230;-2.306;2022-11-15T05:44:08;12.30;99.90
62916;DHT22;49010;51.230;-2.306;2022-11-15T05:47:51;12.30;99.90
62916;DHT22;49010;51.230;-2.306;2022-11-15T05:51:34;12.60;99.90
62916;DHT22;49010;51.230;-2.306;2022-11-15T05:55:16;12.80;99.90
62916;DHT22;49010;51.230;-2.306;2022-11-15T05:58:59;12.40;99.90
62916;DHT22;49010;51.230;-2.306;2022-11-15T06:02:41;12.80;99.90
62916;DHT22;49010;51.230;-2.306;2022-11-15T06:06:23;12.80;99.90
62916;DHT22;49010;51.230;-2.306;2022-11-15T06:10:05;12.60;99.90
62916;DHT22;49010;51.230;-2.306;2022-11-15T06:13:47;12.40;99.90
62916;DHT22;49010;51.230;-2.306;2022-11-15T06:17:29;12.30;99.90
62916;DHT22;49010;51.230;-2.306;2022-11-15T06:21:11;12.70;99.90
62916;DHT22;49010;51.230;-2.306;2022-11-15T06:24:53;12.80;99.90
62916;DHT22;49010;51.230;-2.306;2022-11-15T06:28:34;12.40;99.90
62916;DHT22;49010;51.230;-2.306;2022-11-15T06:32:16;12.90;99.90
62916;DHT22;49010;51.230;-2.306;2022-11-15T06:36:03;12.80;99.90
62916;DHT22;49010;51.230;-2.306;2022-11-15T06:39:45;12.50;99.90
62916;DHT22;49010;51.230;-2.306;2022-11-15T06:43:27;12.70;99.90
62916;DHT22;49010;51.230;-2.306;2022-11-15T06:47:09;12.80;99.90
62916;DHT22;49010;51.230;-2.306;2022-11-15T06:50:56;12.90;99.90
62916;DHT22;49010;51.230;-2.306;2022-11-15T06:54:38;13.00;99.90
62916;DHT22;49010;51.230;-2.306;2022-11-15T06:58:21;13.00;99.90
62916;DHT22;49010;51.230;-2.306;2022-11-15T07:02:03;12.60;99.90
62916;DHT22;49010;51.230;-2.306;2022-11-15T07:05:55;12.80;99.90
62916;DHT22;49010;51.230;-2.306;2022-11-15T07:09:37;12.60;99.90
62916;DHT22;49010;51.230;-2.306;2022-11-15T07:13:19;13.10;99.90
62916;DHT22;49010;51.230;-2.306;2022-11-15T07:17:03;12.80;99.90
62916;DHT22;49010;51.230;-2.306;2022-11-15T07:20:46;13.10;99.90
62916;DHT22;49010;51.230;-2.306;2022-11-15T07:24:28;12.80;99.90
62916;DHT22;49010;51.230;-2.306;2022-11-15T07:28:10;12.70;99.90
62916;DHT22;49010;51.230;-2.306;2022-11-15T07:31:53;12.70;99.90
62916;DHT22;49010;51.230;-2.306;2022-11-15T07:35:35;12.80;99.90
62916;DHT22;49010;51.230;-2.306;2022-11-15T07:39:18;12.90;99.90
62916;DHT22;49010;51.230;-2.306;2022-11-15T07:43:05;12.80;99.90
62916;DHT22;49010;51.230;-2.306;2022-11-15T07:46:48;13.10;99.90
62916;DHT22;49010;51.230;-2.306;2022-11-15T07:50:29;13.30;99.90
62916;DHT22;49010;51.230;-2.306;2022-11-15T07:54:12;13.10;99.90
62916;DHT22;49010;51.230;-2.306;2022-11-15T07:58:00;13.00;99.90
62916;DHT22;49010;51.230;-2.306;2022-11-15T08:01:42;13.20;99.90
62916;DHT22;49010;51.230;-2.306;2022-11-15T08:05:24;12.80;99.90
62916;DHT22;49010;51.230;-2.306;2022-11-15T08:09:06;12.90;99.90
62916;DHT22;49010;51.230;-2.306;2022-11-15T08:12:54;12.90;99.90
62916;DHT22;49010;51.230;-2.306;2022-11-15T08:16:37;13.40;99.90
62916;DHT22;49010;51.230;-2.306;2022-11-15T08:20:19;13.20;99.90
62916;DHT22;49010;51.230;-2.306;2022-11-15T08:24:01;12.90;99.90
62916;DHT22;49010;51.230;-2.306;2022-11-15T08:27:44;13.40;99.90
62916;DHT22;49010;51.230;-2.306;2022-11-15T08:31:26;13.30;99.90
62916;DHT22;49010;51.230;-2.306;2022-11-15T08:35:08;13.00;99.90
62916;DHT22;49010;51.230;-2.306;2022-11-15T08:38:50;13.10;99.90
62916;DHT22;49010;51.230;-2.306;2022-11-15T08:42:32;13.10;99.90
62916;DHT22;49010;51.230;-2.306;2022-11-15T08:46:14;13.00;99.90
62916;DHT22;49010;51.230;-2.306;2022-11-15T08:49:56;13.00;99.90
62916;DHT22;49010;51.230;-2.306;2022-11-15T08:53:38;13.60;99.90
62916;DHT22;49010;51.230;-2.306;2022-11-15T08:57:20;13.30;99.90
62916;DHT22;49010;51.230;-2.306;2022-11-15T09:01:02;13.20;99.90
62916;DHT22;49010;51.230;-2.306;2022-11-15T09:04:48;13.60;99.90
62916;DHT22;49010;51.230;-2.306;2022-11-15T09:08:30;13.20;99.90
62916;DHT22;49010;51.230;-2.306;2022-11-15T09:12:29;13.40;99.90
62916;DHT22;49010;51.230;-2.306;2022-11-15T09:16:11;13.30;99.90
62916;DHT22;49010;51.230;-2.306;2022-11-15T09:19:54;13.60;99.90
62916;DHT22;49010;51.230;-2.306;2022-11-15T09:23:36;13.60;99.90
62916;DHT22;49010;51.230;-2.306;2022-11-15T09:27:18;13.30;99.90
62916;DHT22;49010;51.230;-2.306;2022-11-15T09:31:03;13.00;99.90
62916;DHT22;49010;51.230;-2.306;2022-11-15T09:34:45;13.30;99.90
62916;DHT22;49010;51.230;-2.306;2022-11-15T09:38:27;13.20;99.90
62916;DHT22;49010;51.230;-2.306;2022-11-15T09:46:13;13.60;99.90
62916;DHT22;49010;51.230;-2.306;2022-11-15T09:49:59;13.70;99.90
62916;DHT22;49010;51.230;-2.306;2022-11-15T09:53:49;13.60;99.90
62916;DHT22;49010;51.230;-2.306;2022-11-15T09:58:03;13.30;99.90
62916;DHT22;49010;51.230;-2.306;2022-11-15T10:06:05;13.50;99.90
62916;DHT22;49010;51.230;-2.306;2022-11-15T10:09:52;13.30;99.90
62916;DHT22;49010;51.230;-2.306;2022-11-15T10:13:39;13.30;99.90
62916;DHT22;49010;51.230;-2.306;2022-11-15T10:17:49;13.20;99.90
62916;DHT22;49010;51.230;-2.306;2022-11-15T10:21:58;13.10;99.90
62916;DHT22;49010;51.230;-2.306;2022-11-15T10:25:41;12.90;99.90
62916;DHT22;49010;51.230;-2.306;2022-11-15T10:29:25;12.90;99.90
62916;DHT22;49010;51.230;-2.306;2022-11-15T10:37:00;12.40;99.90
62916;DHT22;49010;51.230;-2.306;2022-11-15T10:40:43;12.40;99.90
62916;DHT22;49010;51.230;-2.306;2022-11-15T10:44:29;12.00;99.90
62916;DHT22;49010;51.230;-2.306;2022-11-15T10:52:12;12.00;99.90
62916;DHT22;49010;51.230;-2.306;2022-11-15T10:56:04;12.00;99.90
62916;DHT22;49010;51.230;-2.306;2022-11-15T10:59:49;12.30;99.90
62916;DHT22;49010;51.230;-2.306;2022-11-15T11:03:37;12.00;99.90
62916;DHT22;49010;51.230;-2.306;2022-11-15T11:07:23;12.50;99.90
62916;DHT22;49010;51.230;-2.306;2022-11-15T11:11:06;12.60;99.90
62916;DHT22;49010;51.230;-2.306;2022-11-15T11:14:49;12.80;99.90
62916;DHT22;49010;51.230;-2.306;2022-11-15T11:27:31;13.00;99.90
62916;DHT22;49010;51.230;-2.306;2022-11-15T11:47:03;13.40;99.90
62916;DHT22;49010;51.230;-2.306;2022-11-15T11:50:49;13.60;99.90
62916;DHT22;49010;51.230;-2.306;2022-11-15T11:58:37;14.10;99.90
62916;DHT22;49010;51.230;-2.306;2022-11-15T12:02:31;13.90;99.90
62916;DHT22;49010;51.230;-2.306;2022-11-15T12:06:21;14.10;99.90
62916;DHT22;49010;51.230;-2.306;2022-11-15T12:10:18;14.10;99.90
62916;DHT22;49010;51.230;-2.306;2022-11-15T12:14:09;13.90;99.90
62916;DHT22;49010;51.230;-2.306;2022-11-15T12:17:55;14.00;99.90
62916;DHT22;49010;51.230;-2.306;2022-11-15T12:21:46;13.80;99.90
62916;DHT22;49010;51.230;-2.306;2022-11-15T12:29:39;13.70;99.90
62916;DHT22;49010;51.230;-2.306;2022-11-15T12:33:34;13.70;99.90
62916;DHT22;49010;51.230;-2.306;2022-11-15T12:41:32;13.60;99.90
62916;DHT22;49010;51.230;-2.306;2022-11-15T12:45:44;13.50;99.90
62916;DHT22;49010;51.230;-2.306;2022-11-15T13:00:57;13.30;99.90
62916;DHT22;49010;51.230;-2.306;2022-11-15T13:04:39;13.40;99.90
62916;DHT22;49010;51.230;-2.306;2022-11-15T13:08:45;13.50;99.90
62916;DHT22;49010;51.230;-2.306;2022-11-15T13:16:18;13.10;99.90
62916;DHT22;49010;51.230;-2.306;2022-11-15T13:20:18;13.40;99.90
62916;DHT22;49010;51.230;-2.306;2022-11-15T13:24:00;13.30;99.90
62916;DHT22;49010;51.230;-2.306;2022-11-15T13:27:42;13.50;99.90
62916;DHT22;49010;51.230;-2.306;2022-11-15T13:31:36;13.70;99.90
62916;DHT22;49010;51.230;-2.306;2022-11-15T13:35:24;14.00;99.90
62916;DHT22;49010;51.230;-2.306;2022-11-15T13:39:23;13.90;99.90
62916;DHT22;49010;51.230;-2.306;2022-11-15T13:47:16;13.80;99.90
62916;DHT22;49010;51.230;-2.306;2022-11-15T13:51:06;14.20;99.90
62916;DHT22;49010;51.230;-2.306;2022-11-15T13:55:00;14.40;99.90
62916;DHT22;49010;51.230;-2.306;2022-11-15T13:58:45;14.60;99.90
62916;DHT22;49010;51.230;-2.306;2022-11-15T14:02:31;14.20;99.90
62916;DHT22;49010;51.230;-2.306;2022-11-15T14:06:19;14.10;99.90
62916;DHT22;49010;51.230;-2.306;2022-11-15T14:10:25;13.90;99.90
62916;DHT22;49010;51.230;-2.306;2022-11-15T14:17:49;14.10;99.90
62916;DHT22;49010;51.230;-2.306;2022-11-15T14:21:32;14.20;99.90
62916;DHT22;49010;51.230;-2.306;2022-11-15T14:25:18;14.30;99.90
62916;DHT22;49010;51.230;-2.306;2022-11-15T14:29:29;14.50;99.90
62916;DHT22;49010;51.230;-2.306;2022-11-15T14:37:30;14.30;99.90
62916;DHT22;49010;51.230;-2.306;2022-11-15T14:41:25;14.10;99.90
62916;DHT22;49010;51.230;-2.306;2022-11-15T14:45:19;13.70;99.90
62916;DHT22;49010;51.230;-2.306;2022-11-15T14:49:01;13.80;99.90
62916;DHT22;49010;51.230;-2.306;2022-11-15T14:52:43;13.80;99.90
62916;DHT22;49010;51.230;-2.306;2022-11-15T14:56:25;13.50;99.90
62916;DHT22;49010;51.230;-2.306;2022-11-15T15:00:08;13.30;99.90
62916;DHT22;49010;51.230;-2.306;2022-11-15T15:03:52;13.50;99.90
62916;DHT22;49010;51.230;-2.306;2022-11-15T15:07:37;13.30;99.90
62916;DHT22;49010;51.230;-2.306;2022-11-15T15:11:27;13.30;99.90
62916;DHT22;49010;51.230;-2.306;2022-11-15T15:15:15;13.10;99.90
62916;DHT22;49010;51.230;-2.306;2022-11-15T15:18:57;13.10;99.90
62916;DHT22;49010;51.230;-2.306;2022-11-15T15:22:39;13.10;99.90
62916;DHT22;49010;51.230;-2.306;2022-11-15T15:26:22;12.90;99.90
62916;DHT22;49010;51.230;-2.306;2022-11-15T15:30:05;12.90;99.90
62916;DHT22;49010;51.230;-2.306;2022-11-15T15:33:47;12.80;99.90
62916;DHT22;49010;51.230;-2.306;2022-11-15T15:37:29;12.30;99.90
62916;DHT22;49010;51.230;-2.306;2022-11-15T15:41:12;12.50;99.90
62916;DHT22;49010;51.230;-2.306;2022-11-15T15:44:55;12.20;99.90
62916;DHT22;49010;51.230;-2.306;2022-11-15T15:48:37;12.40;99.90
62916;DHT22;49010;51.230;-2.306;2022-11-15T15:52:21;12.10;99.90
62916;DHT22;49010;51.230;-2.306;2022-11-15T15:56:03;11.90;99.90
62916;DHT22;49010;51.230;-2.306;2022-11-15T15:59:45;12.10;99.90
62916;DHT22;49010;51.230;-2.306;2022-11-15T16:03:26;12.10;99.90
62916;DHT22;49010;51.230;-2.306;2022-11-15T16:07:17;11.90;99.90
62916;DHT22;49010;51.230;-2.306;2022-11-15T16:11:02;11.80;99.90
62916;DHT22;49010;51.230;-2.306;2022-11-15T16:14:47;12.00;99.90
62916;DHT22;49010;51.230;-2.306;2022-11-15T16:18:29;11.90;99.90
62916;DHT22;49010;51.230;-2.306;2022-11-15T16:22:12;11.80;99.90
62916;DHT22;49010;51.230;-2.306;2022-11-15T16:25:54;11.70;99.90
62916;DHT22;49010;51.230;-2.306;2022-11-15T16:29:37;11.30;99.90
62916;DHT22;49010;51.230;-2.306;2022-11-15T16:33:19;11.40;99.90
62916;DHT22;49010;51.230;-2.306;2022-11-15T16:37:01;11.20;99.90
62916;DHT22;49010;51.230;-2.306;2022-11-15T16:40:43;11.00;99.90
62916;DHT22;49010;51.230;-2.306;2022-11-15T16:44:26;11.20;99.90
62916;DHT22;49010;51.230;-2.306;2022-11-15T16:52:01;10.80;99.90
62916;DHT22;49010;51.230;-2.306;2022-11-15T16:55:42;10.60;99.90
62916;DHT22;49010;51.230;-2.306;2022-11-15T16:59:24;10.70;99.90
62916;DHT22;49010;51.230;-2.306;2022-11-15T17:03:06;10.90;99.90
62916;DHT22;49010;51.230;-2.306;2022-11-15T17:06:48;10.80;99.90
62916;DHT22;49010;51.230;-2.306;2022-11-15T17:10:30;10.90;99.90
62916;DHT22;49010;51.230;-2.306;2022-11-15T17:14:13;10.80;99.90
62916;DHT22;49010;51.230;-2.306;2022-11-15T17:17:56;10.50;99.90
62916;DHT22;49010;51.230;-2.306;2022-11-15T17:21:38;10.50;99.90
62916;DHT22;49010;51.230;-2.306;2022-11-15T17:25:20;10.70;99.90
62916;DHT22;49010;51.230;-2.306;2022-11-15T17:29:02;10.70;99.90
62916;DHT22;49010;51.230;-2.306;2022-11-15T17:32:45;10.40;99.90
62916;DHT22;49010;51.230;-2.306;2022-11-15T17:36:28;10.60;99.90
62916;DHT22;49010;51.230;-2.306;2022-11-15T17:40:11;10.70;99.90
62916;DHT22;49010;51.230;-2.306;2022-11-15T17:43:55;10.40;99.90
62916;DHT22;49010;51.230;-2.306;2022-11-15T17:47:38;10.30;99.90
62916;DHT22;49010;51.230;-2.306;2022-11-15T17:51:20;10.60;99.90
62916;DHT22;49010;51.230;-2.306;2022-11-15T17:55:04;10.30;99.90
62916;DHT22;49010;51.230;-2.306;2022-11-15T17:58:53;10.40;99.90
62916;DHT22;49010;51.230;-2.306;2022-11-15T18:02:35;10.30;99.90
62916;DHT22;49010;51.230;-2.306;2022-11-15T18:06:18;10.30;99.90
62916;DHT22;49010;51.230;-2.306;2022-11-15T18:10:01;10.00;99.90
62916;DHT22;49010;51.230;-2.306;2022-11-15T18:13:44;10.20;99.90
62916;DHT22;49010;51.230;-2.306;2022-11-15T18:17:32;10.20;99.90
62916;DHT22;49010;51.230;-2.306;2022-11-15T18:21:19;10.30;99.90
62916;DHT22;49010;51.230;-2.306;2022-11-15T18:25:02;10.30;99.90
62916;DHT22;49010;51.230;-2.306;2022-11-15T18:28:47;10.20;99.90
62916;DHT22;49010;51.230;-2.306;2022-11-15T18:32:29;10.20;99.90
62916;DHT22;49010;51.230;-2.306;2022-11-15T18:36:13;10.10;99.90
62916;DHT22;49010;51.230;-2.306;2022-11-15T18:39:56;10.20;99.90
62916;DHT22;49010;51.230;-2.306;2022-11-15T18:43:38;9.80;99.90
62916;DHT22;49010;51.230;-2.306;2022-11-15T18:47:20;10.10;99.90
62916;DHT22;49010;51.230;-2.306;2022-11-15T18:51:03;9.80;99.90
62916;DHT22;49010;51.230;-2.306;2022-11-15T18:54:46;9.80;99.90
62916;DHT22;49010;51.230;-2.306;2022-11-15T18:58:33;9.50;99.90
62916;DHT22;49010;51.230;-2.306;2022-11-15T19:02:15;9.40;99.90
62916;DHT22;49010;51.230;-2.306;2022-11-15T19:06:05;9.50;99.90
62916;DHT22;49010;51.230;-2.306;2022-11-15T19:09:47;9.30;99.90
62916;DHT22;49010;51.230;-2.306;2022-11-15T19:13:29;9.60;99.90
62916;DHT22;49010;51.230;-2.306;2022-11-15T19:17:11;9.50;99.90
62916;DHT22;49010;51.230;-2.306;2022-11-15T19:20:54;9.30;99.90
62916;DHT22;49010;51.230;-2.306;2022-11-15T19:24:36;9.10;99.90
62916;DHT22;49010;51.230;-2.306;2022-11-15T19:28:18;9.30;99.90
62916;DHT22;49010;51.230;-2.306;2022-11-15T19:32:00;9.00;99.90
62916;DHT22;49010;51.230;-2.306;2022-11-15T19:35:44;9.10;99.90
62916;DHT22;49010;51.230;-2.306;2022-11-15T19:39:26;9.00;99.90
62916;DHT22;49010;51.230;-2.306;2022-11-15T19:43:08;8.80;99.90
62916;DHT22;49010;51.230;-2.306;2022-11-15T19:46:50;9.10;99.90
62916;DHT22;49010;51.230;-2.306;2022-11-15T19:50:32;8.70;99.90
62916;DHT22;49010;51.230;-2.306;2022-11-15T19:54:14;8.90;99.90
62916;DHT22;49010;51.230;-2.306;2022-11-15T19:57:57;8.90;99.90
62916;DHT22;49010;51.230;-2.306;2022-11-15T20:01:39;8.60;99.90
62916;DHT22;49010;51.230;-2.306;2022-11-15T20:05:22;8.50;99.90
62916;DHT22;49010;51.230;-2.306;2022-11-15T20:09:04;8.80;99.90
62916;DHT22;49010;51.230;-2.306;2022-11-15T20:12:46;8.70;99.90
62916;DHT22;49010;51.230;-2.306;2022-11-15T20:16:28;8.60;99.90
62916;DHT22;49010;51.230;-2.306;2022-11-15T20:20:11;8.80;99.90
62916;DHT22;49010;51.230;-2.306;2022-11-15T20:23:53;8.80;99.90
62916;DHT22;49010;51.230;-2.306;2022-11-15T20:27:36;8.80;99.90
62916;DHT22;49010;51.230;-2.306;2022-11-15T20:31:17;8.70;99.90
62916;DHT22;49010;51.230;-2.306;2022-11-15T20:34:59;8.70;99.90
62916;DHT22;49010;51.230;-2.306;2022-11-15T20:38:42;8.50;99.90
62916;DHT22;49010;51.230;-2.306;2022-11-15T20:42:24;8.30;99.90
62916;DHT22;49010;51.230;-2.306;2022-11-15T20:46:06;8.60;99.90
62916;DHT22;49010;51.230;-2.306;2022-11-15T20:49:48;8.40;99.90
62916;DHT22;49010;51.230;-2.306;2022-11-15T20:53:30;8.30;99.90
62916;DHT22;49010;51.230;-2.306;2022-11-15T20:57:12;8.40;99.90
62916;DHT22;49010;51.230;-2.306;2022-11-15T21:00:54;8.50;99.90
62916;DHT22;49010;51.230;-2.306;2022-11-15T21:04:37;8.30;99.90
62916;DHT22;49010;51.230;-2.306;2022-11-15T21:08:19;8.50;99.90
62916;DHT22;49010;51.230;-2.306;2022-11-15T21:12:01;8.50;99.90
62916;DHT22;49010;51.230;-2.306;2022-11-15T21:15:54;8.20;99.90
62916;DHT22;49010;51.230;-2.306;2022-11-15T21:19:37;8.20;99.90
62916;DHT22;49010;51.230;-2.306;2022-11-15T21:23:19;8.50;99.90
62916;DHT22;49010;51.230;-2.306;2022-11-15T21:27:01;8.30;99.90
62916;DHT22;49010;51.230;-2.306;2022-11-15T21:30:58;8.10;99.90
62916;DHT22;49010;51.230;-2.306;2022-11-15T21:34:40;8.10;99.90
62916;DHT22;49010;51.230;-2.306;2022-11-15T21:38:23;8.40;99.90
62916;DHT22;49010;51.230;-2.306;2022-11-15T21:42:05;8.20;99.90
62916;DHT22;49010;51.230;-2.306;2022-11-15T21:46:02;8.20;99.90
62916;DHT22;49010;51.230;-2.306;2022-11-15T21:49:44;8.30;99.90
62916;DHT22;49010;51.230;-2.306;2022-11-15T21:53:27;8.40;99.90
62916;DHT22;49010;51.230;-2.306;2022-11-15T21:57:10;8.40;99.90
62916;DHT22;49010;51.230;-2.306;2022-11-15T22:00:53;8.40;99.90
62916;DHT22;49010;51.230;-2.306;2022-11-15T22:04:54;8.40;99.90
62916;DHT22;49010;51.230;-2.306;2022-11-15T22:08:36;8.20;99.90
62916;DHT22;49010;51.230;-2.306;2022-11-15T22:12:18;8.30;99.90
62916;DHT22;49010;51.230;-2.306;2022-11-15T22:15:59;8.00;99.90
62916;DHT22;49010;51.230;-2.306;2022-11-15T22:19:41;8.00;99.90
62916;DHT22;49010;51.230;-2.306;2022-11-15T22:23:33;8.30;99.90
62916;DHT22;49010;51.230;-2.306;2022-11-15T22:27:15;8.40;99.90
62916;DHT22;49010;51.230;-2.306;2022-11-15T22:30:59;8.20;99.90
62916;DHT22;49010;51.230;-2.306;2022-11-15T22:34:40;8.50;99.90
62916;DHT22;49010;51.230;-2.306;2022-11-15T22:38:23;8.20;99.90
62916;DHT22;49010;51.230;-2.306;2022-11-15T22:42:05;8.50;99.90
62916;DHT22;49010;51.230;-2.306;2022-11-15T22:45:51;8.40;99.90
62916;DHT22;49010;51.230;-2.306;2022-11-15T22:49:33;8.10;99.90
62916;DHT22;49010;51.230;-2.306;2022-11-15T22:53:17;8.00;99.90
62916;DHT22;49010;51.230;-2.306;2022-11-15T22:56:59;8.10;99.90
62916;DHT22;49010;51.230;-2.306;2022-11-15T23:00:41;8.00;99.90
62916;DHT22;49010;51.230;-2.306;2022-11-15T23:04:23;8.00;99.90
62916;DHT22;49010;51.230;-2.306;2022-11-15T23:08:07;8.00;99.90
62916;DHT22;49010;51.230;-2.306;2022-11-15T23:11:49;8.00;99.90
62916;DHT22;49010;51.230;-2.306;2022-11-15T23:16:09;8.00;99.90
62916;DHT22;49010;51.230;-2.306;2022-11-15T23:20:03;8.00;99.90
62916;DHT22;49010;51.230;-2.306;2022-11-15T23:24:05;8.30;99.90
62916;DHT22;49010;51.230;-2.306;2022-11-15T23:27:48;8.10;99.90
62916;DHT22;49010;51.230;-2.306;2022-11-15T23:31:29;8.00;99.90
62916;DHT22;49010;51.230;-2.306;2022-11-15T23:35:42;8.00;99.90
62916;DHT22;49010;51.230;-2.306;2022-11-15T23:39:33;8.30;99.90
62916;DHT22;49010;51.230;-2.306;2022-11-15T23:43:15;8.20;99.90
62916;DHT22;49010;51.230;-2.306;2022-11-15T23:46:57;8.20;99.90
62916;DHT22;49010;51.230;-2.306;2022-11-15T23:50:39;8.40;99.90
62916;DHT22;49010;51.230;-2.306;2022-11-15T23:54:21;8.40;99.90
62916;DHT22;49010;51.230;-2.306;2022-11-15T23:58:03;8.30;99.90
